Terminal Aerodrome Forecast
Issued by NWS

Home | Current Version | Previous Version | Text Only | Print | Product List | Glossary On
Versions: 1 2 3 4 5 6 7 8 9 10 11 12 13 14 15 16 17 18 19 20 21
000
FTUS46 KMFR 272338
TAFOTH
TAF
KOTH 272338Z 2800/2824 36014G22KT P6SM OVC006
     FM280200 35012KT P6SM OVC006
     FM280400 35006KT 4SM BR OVC005
     FM281000 02004KT 2SM BR SCT003 OVC005=

USA.gov is the U.S. government's official web portal to all federal, state and local government web resources and services.